EDDS

Stuttgart Airport

Stuttgart, Germany
METAR EDDS 251450Z 06010KT 020V100 CAVOK 14/00 Q1036 NOSIG
Observed Flight Rules
Sep-25 @ 14:50 UTC (17 minutes ago) Visual Flight Rules
Wind Visibility Clouds
60° at 10 knots 10,000+ meters
  • Clear skies
Temperatures Readings
Current 14°C / 57°F
Dewpoint 0°C / 32°F
Humidity 39%
Altimeter 30.59" Hg
Pressure 1036 hPa
Elevation 419
METAR EDDS 251450Z 06010KT 020V100 CAVOK 14/00 Q1036 NOSIG
Observed Flight Rules
Sep-25 @ 14:50 UTC
(17 minutes ago)
VFR
Wind Visibility
60° at 10 knots 10,000+ meters
Clouds
  • Clear skies
Temperature Dewpoint
14°C / 57°F 0°C / 32°F
Humidity Altimeter Pressure
39% 30.59" Hg 1036 hPa